createdAt,value
2023-02-09T00:01:31.415Z,5.20
2023-02-09T00:03:59.115Z,5.50
2023-02-09T00:06:26.353Z,4.63
2023-02-09T00:08:53.281Z,5.30
2023-02-09T00:11:45.014Z,5.30
2023-02-09T00:14:12.539Z,5.70
2023-02-09T00:16:39.397Z,5.17
2023-02-09T00:19:06.448Z,4.60
2023-02-09T00:21:33.525Z,6.20
2023-02-09T00:24:00.269Z,5.70
2023-02-09T00:26:26.804Z,5.43
2023-02-09T00:28:53.654Z,5.80
2023-02-09T00:31:20.296Z,6.17
2023-02-09T00:33:47.090Z,5.20
2023-02-09T00:36:14.676Z,6.00
2023-02-09T00:38:42.518Z,6.53
2023-02-09T00:41:09.455Z,6.20
2023-02-09T00:43:37.650Z,6.00
2023-02-09T00:46:04.341Z,5.07
2023-02-09T00:48:31.266Z,6.60
2023-02-09T00:50:58.021Z,6.40
2023-02-09T00:53:25.041Z,5.30
2023-02-09T00:55:52.082Z,6.27
2023-02-09T00:58:19.802Z,5.80
2023-02-09T01:00:46.537Z,5.80
2023-02-09T01:03:13.258Z,5.33
2023-02-09T01:05:41.370Z,6.57
2023-02-09T01:08:07.892Z,5.73
2023-02-09T01:10:34.545Z,6.50
2023-02-09T01:13:01.014Z,5.77
2023-02-09T01:15:29.274Z,6.47
2023-02-09T01:17:55.804Z,5.70
2023-02-09T01:20:22.413Z,5.63
2023-02-09T01:22:48.835Z,6.27
2023-02-09T01:25:15.330Z,7.30
2023-02-09T01:27:42.317Z,5.37
2023-02-09T01:30:09.691Z,5.17
2023-02-09T01:32:37.168Z,5.57
2023-02-09T01:35:04.434Z,6.93
2023-02-09T01:37:33.713Z,5.77
2023-02-09T01:40:00.189Z,6.57
2023-02-09T01:42:27.012Z,6.13
2023-02-09T01:45:08.655Z,7.20
2023-02-09T01:47:43.516Z,6.50
2023-02-09T01:50:10.126Z,5.80
2023-02-09T01:52:36.592Z,6.70
2023-02-09T01:55:07.319Z,5.97
2023-02-09T01:57:43.997Z,7.10
2023-02-09T02:00:16.534Z,6.13
2023-02-09T02:02:52.680Z,5.93
2023-02-09T02:05:20.697Z,6.40
2023-02-09T02:07:56.458Z,5.27
2023-02-09T02:10:24.268Z,5.27
2023-02-09T02:12:53.645Z,6.00
2023-02-09T02:15:22.000Z,5.90
2023-02-09T02:18:07.973Z,7.10
2023-02-09T02:21:12.271Z,6.20
2023-02-09T02:23:44.834Z,7.13
2023-02-09T02:26:35.304Z,4.90
2023-02-09T02:29:16.006Z,5.40
2023-02-09T02:31:54.139Z,6.43
2023-02-09T02:35:03.205Z,5.50
2023-02-09T02:37:56.004Z,5.27
2023-02-09T02:40:48.216Z,5.13
2023-02-09T02:43:33.503Z,6.00
2023-02-09T02:46:10.959Z,6.50
2023-02-09T02:48:48.066Z,6.70
2023-02-09T02:51:27.720Z,5.40
2023-02-09T02:53:57.441Z,5.90
2023-02-09T02:56:35.980Z,5.27
2023-02-09T02:59:06.460Z,6.20
2023-02-09T03:01:40.293Z,5.23
2023-02-09T03:04:08.505Z,5.13
2023-02-09T03:06:37.821Z,5.30
2023-02-09T03:09:05.698Z,5.27
2023-02-09T03:11:39.616Z,5.37
2023-02-09T03:14:09.023Z,4.33
2023-02-09T03:17:04.908Z,5.60
2023-02-09T03:19:57.924Z,4.83
2023-02-09T03:22:35.452Z,5.10
2023-02-09T03:25:05.914Z,6.53
2023-02-09T03:27:34.988Z,5.63
2023-02-09T03:30:04.307Z,6.50
2023-02-09T03:32:32.091Z,6.27
2023-02-09T03:34:59.115Z,6.60
2023-02-09T03:37:25.968Z,5.73
2023-02-09T03:39:52.569Z,4.70
2023-02-09T03:42:19.175Z,5.90
2023-02-09T03:44:45.618Z,5.20
2023-02-09T03:47:12.312Z,4.80
2023-02-09T03:49:40.999Z,6.00
2023-02-09T03:52:12.696Z,5.93
2023-02-09T03:54:39.679Z,5.30
2023-02-09T03:57:06.819Z,5.93
2023-02-09T03:59:35.471Z,6.00
2023-02-09T04:02:03.481Z,5.33
2023-02-09T04:04:30.598Z,5.90
2023-02-09T04:06:57.446Z,6.50
2023-02-09T04:09:25.026Z,5.93
2023-02-09T04:11:51.509Z,8.10
2023-02-09T04:14:18.412Z,6.10
2023-02-09T04:16:45.211Z,7.07
2023-02-09T04:19:12.314Z,7.70
2023-02-09T04:21:39.343Z,7.00
2023-02-09T04:24:06.810Z,6.73
2023-02-09T04:26:33.964Z,6.57
2023-02-09T04:29:00.618Z,8.03
2023-02-09T04:31:27.260Z,8.67
2023-02-09T04:33:53.775Z,7.93
2023-02-09T04:36:23.178Z,9.00
2023-02-09T04:38:50.149Z,7.90
2023-02-09T04:41:16.599Z,7.57
2023-02-09T04:43:43.113Z,8.77
2023-02-09T04:46:17.546Z,9.40
2023-02-09T04:48:45.368Z,8.97
2023-02-09T04:51:11.898Z,10.20
2023-02-09T04:53:38.317Z,9.47
2023-02-09T04:56:05.270Z,9.60
2023-02-09T04:58:50.340Z,9.23
2023-02-09T05:01:26.165Z,9.97
2023-02-09T05:03:53.425Z,10.30
2023-02-09T05:06:19.944Z,8.57
2023-02-09T05:08:46.920Z,10.83
2023-02-09T05:11:13.348Z,9.27
2023-02-09T05:13:40.068Z,9.37
2023-02-09T05:16:08.234Z,9.50
2023-02-09T05:18:35.332Z,9.67
2023-02-09T05:21:01.922Z,8.83
2023-02-09T05:23:28.520Z,10.43
2023-02-09T05:25:56.458Z,9.70
2023-02-09T05:28:24.821Z,10.90
2023-02-09T05:30:53.782Z,9.40
2023-02-09T05:33:25.159Z,11.27
2023-02-09T05:35:53.260Z,11.20
2023-02-09T05:38:19.985Z,12.37
2023-02-09T05:40:46.850Z,12.20
2023-02-09T05:43:14.703Z,11.57
2023-02-09T05:45:41.279Z,11.97
2023-02-09T05:48:07.863Z,12.20
2023-02-09T05:50:35.736Z,12.00
2023-02-09T05:53:07.084Z,12.37
2023-02-09T05:55:33.500Z,11.87
2023-02-09T05:58:00.027Z,12.00
2023-02-09T06:00:29.588Z,13.97
2023-02-09T06:02:56.303Z,12.77
2023-02-09T06:05:22.857Z,10.40
2023-02-09T06:07:49.566Z,13.17
2023-02-09T06:10:19.122Z,13.20
2023-02-09T06:12:45.559Z,13.37
2023-02-09T06:15:12.401Z,12.50
2023-02-09T06:17:38.846Z,12.93
2023-02-09T06:20:05.854Z,11.57
2023-02-09T06:22:32.290Z,11.90
2023-02-09T06:24:59.609Z,11.53
2023-02-09T06:27:26.009Z,12.87
2023-02-09T06:29:52.582Z,12.77
2023-02-09T06:32:19.071Z,12.60
2023-02-09T06:34:45.689Z,12.63
2023-02-09T06:37:12.112Z,13.07
2023-02-09T06:39:38.531Z,11.20
2023-02-09T06:42:05.128Z,12.87
2023-02-09T06:44:31.537Z,13.70
2023-02-09T06:46:58.056Z,11.47
2023-02-09T06:49:26.381Z,12.80
2023-02-09T06:51:53.040Z,10.97
2023-02-09T06:54:20.089Z,13.80
2023-02-09T06:56:46.742Z,12.67
2023-02-09T06:59:13.809Z,13.43
2023-02-09T07:01:40.472Z,13.77
2023-02-09T07:04:06.980Z,10.33
2023-02-09T07:06:33.437Z,14.93
2023-02-09T07:08:59.924Z,11.30
2023-02-09T07:11:26.398Z,12.97
2023-02-09T07:13:52.841Z,12.10
2023-02-09T07:16:19.339Z,12.77
2023-02-09T07:18:45.937Z,12.87
2023-02-09T07:21:19.832Z,12.60
2023-02-09T07:23:47.752Z,12.27
2023-02-09T07:26:17.671Z,12.77
2023-02-09T07:28:44.655Z,12.23
2023-02-09T07:31:13.849Z,13.60
2023-02-09T07:33:40.497Z,10.53
2023-02-09T07:36:09.600Z,15.13
2023-02-09T07:38:37.370Z,13.07
2023-02-09T07:41:06.354Z,13.03
2023-02-09T07:43:33.400Z,14.83
2023-02-09T07:46:01.572Z,12.10
2023-02-09T07:48:28.611Z,13.10
2023-02-09T07:50:55.194Z,12.87
2023-02-09T07:53:21.774Z,11.70
2023-02-09T07:55:48.519Z,13.33
2023-02-09T07:58:18.125Z,12.57
2023-02-09T08:00:46.163Z,13.37
2023-02-09T08:03:14.697Z,12.30
2023-02-09T08:06:00.389Z,11.53
2023-02-09T08:08:27.128Z,8.20
2023-02-09T08:10:56.344Z,13.40
2023-02-09T08:13:23.863Z,11.40
2023-02-09T08:15:55.521Z,12.00
2023-02-09T08:18:32.368Z,9.00
2023-02-09T08:20:59.168Z,10.47
2023-02-09T08:23:30.909Z,10.10
2023-02-09T08:26:00.002Z,9.50
2023-02-09T08:28:41.675Z,11.87
2023-02-09T08:31:14.721Z,10.20
2023-02-09T08:33:42.458Z,11.40
2023-02-09T08:36:10.413Z,8.97
2023-02-09T08:38:37.166Z,10.87
2023-02-09T08:41:05.792Z,9.53
2023-02-09T08:43:33.082Z,9.30
2023-02-09T08:46:08.924Z,10.90
2023-02-09T08:48:37.082Z,10.13
2023-02-09T08:51:04.597Z,9.50
2023-02-09T08:53:31.083Z,9.57
2023-02-09T08:55:57.632Z,9.53
2023-02-09T08:58:25.647Z,10.20
2023-02-09T09:00:59.859Z,8.57
2023-02-09T09:03:29.906Z,8.60
2023-02-09T09:06:05.117Z,9.20
2023-02-09T09:08:32.730Z,10.47
2023-02-09T09:10:59.552Z,10.30
2023-02-09T09:13:26.633Z,9.47
2023-02-09T09:15:55.247Z,10.13
2023-02-09T09:18:22.923Z,9.23
2023-02-09T09:20:49.412Z,10.00
2023-02-09T09:23:16.358Z,10.50
2023-02-09T09:25:43.035Z,10.40
2023-02-09T09:28:10.299Z,10.50
2023-02-09T09:30:37.158Z,8.97
2023-02-09T09:33:04.245Z,8.87
2023-02-09T09:35:31.206Z,9.20
2023-02-09T09:37:58.472Z,7.70
2023-02-09T09:40:27.914Z,7.70
2023-02-09T09:43:00.589Z,7.10
2023-02-09T09:45:29.652Z,7.67
2023-02-09T09:47:56.885Z,8.40
2023-02-09T09:50:27.426Z,7.60
2023-02-09T09:53:04.945Z,7.90
2023-02-09T09:55:32.484Z,8.13
2023-02-09T09:58:02.942Z,8.60
2023-02-09T10:00:39.730Z,9.33
2023-02-09T10:03:17.850Z,8.80
2023-02-09T10:05:47.303Z,7.70
2023-02-09T10:08:29.507Z,8.87
2023-02-09T10:11:17.146Z,8.03
2023-02-09T10:13:49.541Z,7.60
2023-02-09T10:16:18.618Z,8.10
2023-02-09T10:18:49.464Z,8.33
2023-02-09T10:21:17.195Z,8.50
2023-02-09T10:23:50.148Z,8.10
2023-02-09T10:26:23.190Z,7.53
2023-02-09T10:29:12.716Z,5.93
2023-02-09T10:31:43.450Z,6.50
2023-02-09T10:34:16.475Z,6.80
2023-02-09T10:36:45.883Z,7.27
2023-02-09T10:39:12.249Z,6.87
2023-02-09T10:41:41.964Z,6.43
2023-02-09T10:44:23.681Z,6.97
2023-02-09T10:46:50.608Z,5.87
2023-02-09T10:49:35.191Z,6.03
2023-02-09T10:52:20.559Z,7.03
2023-02-09T10:54:56.831Z,6.70
2023-02-09T10:57:28.748Z,6.73
2023-02-09T10:59:58.210Z,6.27
2023-02-09T11:02:29.146Z,6.70
2023-02-09T11:04:55.594Z,5.33
2023-02-09T11:07:25.123Z,6.90
2023-02-09T11:09:52.501Z,6.10
2023-02-09T11:12:22.632Z,6.30
2023-02-09T11:14:49.348Z,6.80
2023-02-09T11:17:36.326Z,6.33
2023-02-09T11:20:13.591Z,5.87
2023-02-09T11:22:45.931Z,6.20
2023-02-09T11:25:33.030Z,5.37
2023-02-09T11:28:31.486Z,6.17
2023-02-09T11:31:25.833Z,5.90
2023-02-09T11:34:04.600Z,6.40
2023-02-09T11:36:57.360Z,6.37
2023-02-09T11:39:36.972Z,6.30
2023-02-09T11:42:34.658Z,6.77
2023-02-09T11:45:22.164Z,6.20
2023-02-09T11:48:02.477Z,5.50
2023-02-09T11:50:56.355Z,6.37
2023-02-09T11:53:45.629Z,5.93
2023-02-09T11:56:15.977Z,7.90
2023-02-09T11:58:56.963Z,8.00
2023-02-09T12:02:00.267Z,7.20
2023-02-09T12:04:59.082Z,6.73
2023-02-09T12:08:01.971Z,6.70
2023-02-09T12:10:37.259Z,7.30
2023-02-09T12:13:23.929Z,7.20
2023-02-09T12:15:54.355Z,7.20
2023-02-09T12:18:27.506Z,7.07
2023-02-09T12:20:56.182Z,8.83
2023-02-09T12:23:36.715Z,8.83
2023-02-09T12:26:12.242Z,8.60
2023-02-09T12:28:46.321Z,8.27
2023-02-09T12:31:19.408Z,8.60
2023-02-09T12:33:45.988Z,8.33
2023-02-09T12:36:21.284Z,9.00
2023-02-09T12:39:07.117Z,9.27
2023-02-09T12:41:33.549Z,8.00
2023-02-09T12:44:05.886Z,9.60
2023-02-09T12:46:32.338Z,9.20
2023-02-09T12:49:01.857Z,7.60
2023-02-09T12:51:52.933Z,8.53
2023-02-09T12:54:51.815Z,8.00
2023-02-09T12:57:18.844Z,8.50
2023-02-09T12:59:51.244Z,9.00
2023-02-09T13:02:25.293Z,9.67
2023-02-09T13:05:09.724Z,8.57
2023-02-09T13:07:44.864Z,8.27
2023-02-09T13:10:42.438Z,7.93
2023-02-09T13:13:12.081Z,8.83
2023-02-09T13:15:47.887Z,7.60
2023-02-09T13:18:33.725Z,8.30
2023-02-09T13:21:18.869Z,7.33
2023-02-09T13:24:04.246Z,8.20
2023-02-09T13:26:34.122Z,7.87
2023-02-09T13:29:21.462Z,8.10
2023-02-09T13:31:54.658Z,8.77
2023-02-09T13:34:40.034Z,9.07
2023-02-09T13:37:17.778Z,8.30
2023-02-09T13:39:44.461Z,8.33
2023-02-09T13:42:23.635Z,8.40
2023-02-09T13:44:52.585Z,8.03
2023-02-09T13:47:19.810Z,7.00
2023-02-09T13:50:01.079Z,7.87
2023-02-09T13:52:38.842Z,8.40
2023-02-09T13:55:21.346Z,8.23
2023-02-09T13:58:07.201Z,8.40
2023-02-09T14:00:43.744Z,8.10
2023-02-09T14:03:21.003Z,9.13
2023-02-09T14:06:17.978Z,7.93
2023-02-09T14:08:46.279Z,8.33
2023-02-09T14:11:18.765Z,8.27
2023-02-09T14:13:52.200Z,8.70
2023-02-09T14:16:20.955Z,8.33
2023-02-09T14:18:54.808Z,8.97
2023-02-09T14:21:31.598Z,8.60
2023-02-09T14:24:00.945Z,11.97
2023-02-09T14:26:30.196Z,9.30
2023-02-09T14:29:23.807Z,8.37
2023-02-09T14:31:53.389Z,9.00
2023-02-09T14:34:28.118Z,9.13
2023-02-09T14:37:00.235Z,9.87
2023-02-09T14:39:30.850Z,8.87
2023-02-09T14:42:09.032Z,9.80
2023-02-09T14:44:45.581Z,8.63
2023-02-09T14:47:50.972Z,8.27
2023-02-09T14:50:20.594Z,9.33
2023-02-09T14:52:54.325Z,9.30
2023-02-09T14:55:26.369Z,10.20
2023-02-09T14:57:53.125Z,9.90
2023-02-09T15:00:30.125Z,9.33
2023-02-09T15:02:58.177Z,9.60
2023-02-09T15:05:26.622Z,9.33
2023-02-09T15:07:59.795Z,9.50
2023-02-09T15:10:31.991Z,9.90
2023-02-09T15:12:59.527Z,9.13
2023-02-09T15:15:26.583Z,9.43
2023-02-09T15:17:55.172Z,10.57
2023-02-09T15:20:26.058Z,10.23
2023-02-09T15:22:53.976Z,9.57
2023-02-09T15:25:21.156Z,11.20
2023-02-09T15:27:52.908Z,9.97
2023-02-09T15:30:26.435Z,9.57
2023-02-09T15:32:53.428Z,9.13
2023-02-09T15:35:22.686Z,9.30
2023-02-09T15:37:53.230Z,9.50
2023-02-09T15:40:49.374Z,9.77
2023-02-09T15:43:40.310Z,9.57
2023-02-09T15:46:26.835Z,11.03
2023-02-09T15:48:53.404Z,9.97
2023-02-09T15:51:21.969Z,9.40
2023-02-09T15:53:48.866Z,9.77
2023-02-09T15:56:16.008Z,9.70
2023-02-09T15:58:45.788Z,10.50
2023-02-09T16:01:14.526Z,10.20
2023-02-09T16:03:41.068Z,9.70
2023-02-09T16:06:14.827Z,10.50
2023-02-09T16:08:43.140Z,11.70
2023-02-09T16:11:32.927Z,11.53
2023-02-09T16:13:59.956Z,9.83
2023-02-09T16:16:27.803Z,10.17
2023-02-09T16:18:55.016Z,9.63
2023-02-09T16:21:31.621Z,10.13
2023-02-09T16:24:03.715Z,10.33
2023-02-09T16:26:32.307Z,9.50
2023-02-09T16:28:59.046Z,10.30
2023-02-09T16:31:25.605Z,10.20
2023-02-09T16:33:52.297Z,11.47
2023-02-09T16:36:21.512Z,12.20
2023-02-09T16:38:48.260Z,11.10
2023-02-09T16:41:37.479Z,11.20
2023-02-09T16:44:18.966Z,11.33
2023-02-09T16:46:48.091Z,9.70
2023-02-09T16:49:29.775Z,11.30
2023-02-09T16:52:00.526Z,12.17
2023-02-09T16:54:29.286Z,12.00
2023-02-09T16:56:56.557Z,12.57
2023-02-09T16:59:23.023Z,13.57
2023-02-09T17:01:49.576Z,12.00
2023-02-09T17:04:16.043Z,12.50
2023-02-09T17:06:42.496Z,13.67
2023-02-09T17:09:15.220Z,12.70
2023-02-09T17:11:42.984Z,14.00
2023-02-09T17:14:09.643Z,12.70
2023-02-09T17:16:39.464Z,12.73
2023-02-09T17:19:15.078Z,13.60
2023-02-09T17:21:42.238Z,14.20
2023-02-09T17:24:16.542Z,13.60
2023-02-09T17:26:43.869Z,13.53
2023-02-09T17:29:11.392Z,14.57
2023-02-09T17:31:52.452Z,16.13
2023-02-09T17:34:20.675Z,15.40
2023-02-09T17:36:47.358Z,15.90
2023-02-09T17:39:14.004Z,19.17
2023-02-09T17:41:46.350Z,18.40
2023-02-09T17:44:28.980Z,17.80
2023-02-09T17:47:03.202Z,16.60
2023-02-09T17:49:29.708Z,15.00
2023-02-09T17:51:56.178Z,16.67
2023-02-09T17:54:22.592Z,15.23
2023-02-09T17:56:49.114Z,16.90
2023-02-09T17:59:19.461Z,16.27
2023-02-09T18:01:49.451Z,15.97
2023-02-09T18:04:23.236Z,16.20
2023-02-09T18:06:49.851Z,16.20
2023-02-09T18:09:16.646Z,15.80
2023-02-09T18:11:52.249Z,16.40
2023-02-09T18:14:20.620Z,16.07
2023-02-09T18:16:47.995Z,17.10
2023-02-09T18:19:16.020Z,14.57
2023-02-09T18:21:55.134Z,15.77
2023-02-09T18:24:23.012Z,16.20
2023-02-09T18:26:52.381Z,18.30
2023-02-09T18:29:22.732Z,13.60
2023-02-09T18:31:50.433Z,15.97
2023-02-09T18:34:16.978Z,18.17
2023-02-09T18:36:43.503Z,17.20
2023-02-09T18:39:10.007Z,16.93
2023-02-09T18:41:36.424Z,19.43
2023-02-09T18:44:02.886Z,17.67
2023-02-09T18:46:29.356Z,18.77
2023-02-09T18:48:56.151Z,18.93
2023-02-09T18:51:22.734Z,18.30
2023-02-09T18:53:50.179Z,18.43
2023-02-09T18:56:20.834Z,16.23
2023-02-09T18:58:49.762Z,16.83
2023-02-09T19:01:18.690Z,18.00
2023-02-09T19:03:45.161Z,18.17
2023-02-09T19:06:11.863Z,17.40
2023-02-09T19:08:39.573Z,18.27
2023-02-09T19:11:06.910Z,17.70
2023-02-09T19:13:33.988Z,17.37
2023-02-09T19:16:01.103Z,20.93
2023-02-09T19:18:27.872Z,17.77
2023-02-09T19:20:57.778Z,19.30
2023-02-09T19:23:25.080Z,20.13
2023-02-09T19:26:01.797Z,20.10
2023-02-09T19:28:47.454Z,21.70
2023-02-09T19:31:23.380Z,21.40
2023-02-09T19:33:54.649Z,21.30
2023-02-09T19:36:22.724Z,22.57
2023-02-09T19:38:49.169Z,22.73
2023-02-09T19:41:15.653Z,24.17
2023-02-09T19:43:42.194Z,21.17
2023-02-09T19:46:13.185Z,23.17
2023-02-09T19:48:40.418Z,22.37
2023-02-09T19:51:07.735Z,22.87
2023-02-09T19:53:34.442Z,24.93
2023-02-09T19:56:00.915Z,24.80
2023-02-09T19:58:27.368Z,23.50
2023-02-09T20:00:55.414Z,24.17
2023-02-09T20:03:22.885Z,25.70
2023-02-09T20:05:50.800Z,20.53
2023-02-09T20:08:19.591Z,22.03
2023-02-09T20:10:46.542Z,27.20
2023-02-09T20:13:13.934Z,28.87
2023-02-09T20:15:42.187Z,26.10
2023-02-09T20:18:09.058Z,24.50
2023-02-09T20:20:35.884Z,22.50
2023-02-09T20:23:02.295Z,22.37
2023-02-09T20:25:28.957Z,23.10
2023-02-09T20:27:55.708Z,26.03
2023-02-09T20:30:22.354Z,25.33
2023-02-09T20:32:49.166Z,25.90
2023-02-09T20:35:15.675Z,27.50
2023-02-09T20:37:42.399Z,26.67
2023-02-09T20:40:11.341Z,27.20
2023-02-09T20:42:57.245Z,30.90
2023-02-09T20:45:42.973Z,27.20
2023-02-09T20:48:12.221Z,27.20
2023-02-09T20:50:39.750Z,24.90
2023-02-09T20:53:06.657Z,27.60
2023-02-09T20:55:35.188Z,26.33
2023-02-09T20:58:02.255Z,25.10
2023-02-09T21:00:29.322Z,26.63
2023-02-09T21:02:56.186Z,26.70
2023-02-09T21:05:23.227Z,24.20
2023-02-09T21:07:52.253Z,25.43
2023-02-09T21:10:19.344Z,27.37
2023-02-09T21:12:47.211Z,27.80
2023-02-09T21:15:14.512Z,27.17
2023-02-09T21:17:47.505Z,29.00
2023-02-09T21:20:16.553Z,28.80
2023-02-09T21:22:43.774Z,29.57
2023-02-09T21:25:11.904Z,33.20
2023-02-09T21:27:41.125Z,28.67
2023-02-09T21:30:10.555Z,30.27
2023-02-09T21:32:38.899Z,35.03
2023-02-09T21:35:10.447Z,32.33
2023-02-09T21:37:39.182Z,34.27
2023-02-09T21:40:07.161Z,35.40
2023-02-09T21:42:35.692Z,33.73
2023-02-09T21:45:03.434Z,34.67
2023-02-09T21:47:36.028Z,30.07
2023-02-09T21:50:06.669Z,30.90
2023-02-09T21:52:37.020Z,32.43
2023-02-09T21:55:04.669Z,32.37
2023-02-09T21:57:31.091Z,29.93
2023-02-09T21:59:58.951Z,33.13
2023-02-09T22:02:27.318Z,34.07
2023-02-09T22:04:56.352Z,33.80
2023-02-09T22:07:22.972Z,33.37
2023-02-09T22:09:49.465Z,33.30
2023-02-09T22:12:15.922Z,39.70
2023-02-09T22:14:42.352Z,31.97
2023-02-09T22:17:08.794Z,33.73
2023-02-09T22:19:35.648Z,34.77
2023-02-09T22:22:02.142Z,32.73
2023-02-09T22:24:30.005Z,30.77
2023-02-09T22:26:56.473Z,27.90
2023-02-09T22:29:23.021Z,31.67
2023-02-09T22:31:49.462Z,35.30
2023-02-09T22:34:15.961Z,31.10
2023-02-09T22:36:42.412Z,30.17
2023-02-09T22:39:09.284Z,29.47
2023-02-09T22:41:36.116Z,29.80
2023-02-09T22:44:08.084Z,28.73
2023-02-09T22:46:38.118Z,27.67
2023-02-09T22:49:08.163Z,25.67
2023-02-09T22:51:38.949Z,24.67
2023-02-09T22:54:09.457Z,26.43
2023-02-09T22:56:35.964Z,26.80
2023-02-09T22:59:03.588Z,27.23
2023-02-09T23:01:30.549Z,26.57
2023-02-09T23:03:57.855Z,27.43
2023-02-09T23:06:29.707Z,28.03
2023-02-09T23:08:58.953Z,26.30
2023-02-09T23:11:30.025Z,24.97
2023-02-09T23:14:09.708Z,25.20
2023-02-09T23:16:38.073Z,21.93
2023-02-09T23:19:07.846Z,19.27
2023-02-09T23:21:37.702Z,18.10
2023-02-09T23:24:05.126Z,17.73
2023-02-09T23:26:31.758Z,17.60
2023-02-09T23:29:03.426Z,19.37
2023-02-09T23:31:30.564Z,17.43
2023-02-09T23:33:57.714Z,18.30
2023-02-09T23:36:49.782Z,17.93
2023-02-09T23:39:19.313Z,16.50
2023-02-09T23:41:45.922Z,16.73
2023-02-09T23:44:13.121Z,17.07
2023-02-09T23:46:40.775Z,16.53
2023-02-09T23:49:07.337Z,16.63
2023-02-09T23:51:35.563Z,14.50
2023-02-09T23:54:05.109Z,17.33
2023-02-09T23:56:36.746Z,16.43
2023-02-09T23:59:09.302Z,17.20
